MUC | München Airways

 METAR UND TAF INFORMATION

METAR FOR WADD
ADDS - METARS form results

(0922 UTC 21 May 2019)
Data provider http://aviationweather.gov/metar/data/
 
METAR text: WADD 210900Z 12013KT 9999 FEW016 29/25 Q1011 NOSIG
Conditions at: WADD (BALI INTL , ID) observed 0900 UTC 21 May 2019
Temperature: 29.0°C (84°F)
Dewpoint: 25.0°C (77°F) [RH = 79%]
Pressure (altimeter): 29.85 inches Hg (1011.0 mb)
Winds: from the ESE (120 degrees) at 15 MPH (13 knots; 6.7 m/s)
Visibility: 6 or more miles (10+ km)
Ceiling: at least 12,000 feet AGL
Clouds: few clouds at 1600 feet AGL
Weather: no significant weather observed at this time

METAR text: WADD 210830Z 13011KT 9999 BKN016 29/25 Q1010 NOSIG
Conditions at: WADD (BALI INTL , ID) observed 0830 UTC 21 May 2019
Temperature: 29.0°C (84°F)
Dewpoint: 25.0°C (77°F) [RH = 79%]
Pressure (altimeter): 29.82 inches Hg (1010.0 mb)
Winds: from the SE (130 degrees) at 13 MPH (11 knots; 5.7 m/s)
Visibility: 6 or more miles (10+ km)
Ceiling: 1600 feet AGL
Clouds: broken clouds at 1600 feet AGL
Weather: no significant weather observed at this time

Forecast for: AMD
Text: TAF AMD WADD 210530Z 2106/2206 11010KT 9999 SCT016
Forecast period: 0600 to 1600 UTC 21 May 2019
Forecast type: FROM: standard forecast or significant change
Winds: from the ESE (110 degrees) at 12 MPH (10 knots; 5.1 m/s)
Visibility: 6 or more miles 10+ km)
Ceiling: at least 12,000 feet AGL
Clouds: scattered clouds at 1600 feet AGL
Weather: no significant weather forecast for this period
Text: BECMG 2116/2118 VRB05KT
Forecast period: 1600 UTC 21 May 2019 to 0600 UTC 22 May 2019
Forecast type: BECOMING: Conditions expected to become as follows by 1800 UTC 21 May 2019
Winds: variable direction winds at 6 MPH (5 knots; 2.6 m/s)
Visibility: 6 or more miles 10+ km)
Ceiling: at least 12,000 feet AGL
Clouds: scattered clouds at 1600 feet AGL
Weather: no significant weather forecast for this period

 FLUGHAFENKARTE

 RUNWAY INFORMATION
Runway 09 Runway length 9790 ft Runway width 148 ft
Runway elevation 11 ft Runway displaced threshold 0 ft Runway heading 88
Runway 27 Runway length 9790 ft Runway width 148 ft
Runway elevation 12 ft Runway displaced threshold 0 ft Runway heading 268

 AIRPORT FREQUENCIES
Type APP Name DIRECTOR Frequency 119.7 MHZ
Type ATIS Name ATIS Frequency 126.2 MHZ
Type GND Name NGURAH GND Frequency 118.8 MHZ
Type INFO Name INFO Frequency 8.88 MHZ
Type TWR Name NGURAH TWR Frequency 118.1 MHZ
Type TMA Name RADAR Frequency 119.3 MHZ

 AIRPORT NEAR NAVIGATION AIDS
Type VOR-DME Name Bali Frequency 116200 KHZ
Type NDB Name Bali Frequency 230 KHZ